Buckner, Arkansas
Current Conditions -  °F | °C
As of 9:53 AM on Sunday 23 Nov 2014 (Local Time) from KTXK Reporting Station
Light Rain Light Rain  
Wind Chill: 62°   Ceiling: 10000
Heat Index: 62°   Visibility: 7mi
Dew Point: 62°   Wind: 7mph
Humidity: 100%   Direction: 210°SSW
Pressure: 29.54"   Gusts: NA
Location:  33.36°N, 93.44°W
Report Text: KTXK 231553Z 21006KT 7SM -RA FEW008 FEW070 OVC100 17/17 A2954 RMK AO2 SLP000 P0003 T01670167 $
Loading
Personal Weather Stations






























Interactive Weather Map New forecast layout! Learn more

10-Day Weather Forecast

Advertisements
Track Severe Weather on mobile